Time;durP1;ratioP1;P1;durP2;ratioP2;P2;SDS_P1;SDS_P2;PMS_P1;PMS_P2;Temp;Humidity;BMP_temperature;BMP_pressure;BME280_temperature;BME280_humidity;BME280_pressure;Samples;Min_cycle;Max_cycle;Signal;HPM_P1;HPM_P2
2023/03/02 00:01:44;;;;;;;5.35;2.78;;;;;;;18.47;39.67;102327.13;5101431;28;20027;-67
2023/03/02 00:04:19;;;;;;;6.80;2.70;;;;;;;18.49;39.79;102327.88;5091069;28;20040;-67
2023/03/02 00:06:45;;;;;;;4.63;2.85;;;;;;;18.45;39.90;102326.38;5095685;28;20036;-66
2023/03/02 00:09:10;;;;;;;5.15;2.85;;;;;;;18.44;39.74;102323.81;5081547;28;20171;-67
2023/03/02 00:11:37;;;;;;;4.78;2.60;;;;;;;18.46;40.02;102337.75;5089326;28;20031;-67
2023/03/02 00:14:03;;;;;;;5.43;2.90;;;;;;;18.45;39.76;102331.66;5099789;28;20032;-67
2023/03/02 00:16:29;;;;;;;4.65;2.70;;;;;;;18.44;39.75;102334.38;5085906;28;20028;-66
2023/03/02 00:18:54;;;;;;;4.90;2.83;;;;;;;18.43;39.76;102338.78;5093209;28;20064;-67
2023/03/02 00:21:19;;;;;;;5.63;2.80;;;;;;;18.44;39.64;102331.72;5096627;28;20740;-67
2023/03/02 00:23:44;;;;;;;6.00;2.80;;;;;;;18.44;39.56;102334.38;5084576;28;20048;-67
2023/03/02 00:26:10;;;;;;;4.85;2.50;;;;;;;18.41;39.50;102329.28;5093329;28;20426;-67
2023/03/02 00:28:35;;;;;;;5.03;2.85;;;;;;;18.41;39.70;102327.47;5080647;28;20031;-67
2023/03/02 00:31:04;;;;;;;4.28;2.42;;;;;;;18.35;39.51;102322.56;5091673;28;20568;-68
2023/03/02 00:33:30;;;;;;;5.78;2.72;;;;;;;18.33;39.74;102327.09;5098080;28;20035;-67
2023/03/02 00:35:56;;;;;;;4.65;2.50;;;;;;;18.35;39.60;102325.19;5080760;28;20107;-67
2023/03/02 00:38:21;;;;;;;4.43;2.58;;;;;;;18.36;39.61;102336.59;5083867;28;20146;-66
2023/03/02 00:40:50;;;;;;;4.38;2.42;;;;;;;18.32;39.78;102328.00;5095332;28;20043;-66
2023/03/02 00:43:16;;;;;;;5.78;2.65;;;;;;;18.30;39.63;102327.25;5079512;28;20476;-67
2023/03/02 00:45:42;;;;;;;5.57;2.85;;;;;;;18.32;39.68;102333.28;5093991;28;20031;-69
2023/03/02 00:48:07;;;;;;;5.75;2.53;;;;;;;18.33;39.64;102342.09;5100802;28;20032;-66
2023/03/02 00:50:38;;;;;;;4.85;2.47;;;;;;;18.32;39.54;102343.84;5101454;28;20031;-66
2023/03/02 00:53:03;;;;;;;4.95;2.63;;;;;;;18.31;39.37;102339.53;5087204;28;20036;-67
2023/03/02 00:55:29;;;;;;;5.00;2.75;;;;;;;18.26;39.65;102331.88;5093367;28;20395;-68
2023/03/02 00:57:54;;;;;;;5.07;2.45;;;;;;;18.29;39.47;102336.97;5100694;28;20036;-67
2023/03/02 01:00:21;;;;;;;4.50;2.58;;;;;;;18.25;39.63;102327.53;5088807;28;20794;-67
2023/03/02 01:02:47;;;;;;;5.63;2.80;;;;;;;18.26;39.59;102331.00;5102381;28;20035;-66
2023/03/02 01:05:13;;;;;;;5.60;3.10;;;;;;;18.24;39.52;102331.09;5093271;28;20044;-67
2023/03/02 01:07:39;;;;;;;5.03;2.90;;;;;;;18.23;39.43;102329.41;5091080;28;20040;-67
2023/03/02 01:10:04;;;;;;;4.78;2.75;;;;;;;18.21;39.44;102317.25;5084798;28;20061;-67
2023/03/02 01:12:30;;;;;;;5.13;2.67;;;;;;;18.22;39.51;102319.78;5089059;28;20042;-67
2023/03/02 01:14:56;;;;;;;5.22;2.65;;;;;;;18.23;39.51;102315.34;5084357;28;20225;-67
2023/03/02 01:17:21;;;;;;;5.25;2.90;;;;;;;18.19;39.47;102309.41;5102916;28;20655;-68
2023/03/02 01:19:47;;;;;;;5.05;2.95;;;;;;;18.19;39.25;102306.78;5104393;28;20023;-68
2023/03/02 01:22:13;;;;;;;5.07;2.55;;;;;;;18.20;39.42;102318.16;5104913;27;20039;-68
2023/03/02 01:24:38;;;;;;;5.25;2.50;;;;;;;18.18;39.60;102305.06;5103718;28;20034;-66
2023/03/02 01:27:03;;;;;;;4.60;2.35;;;;;;;18.20;39.63;102302.34;5093584;28;20035;-66
2023/03/02 01:29:29;;;;;;;5.53;2.75;;;;;;;18.17;39.84;102300.75;5084675;28;20177;-66
2023/03/02 01:31:54;;;;;;;5.70;2.78;;;;;;;18.19;39.50;102312.06;5098620;28;20036;-67
2023/03/02 01:34:20;;;;;;;5.05;2.60;;;;;;;18.17;39.41;102303.38;5093853;28;20472;-65
2023/03/02 01:36:45;;;;;;;5.82;2.70;;;;;;;18.14;39.37;102298.28;5101916;28;20126;-66
2023/03/02 01:39:15;;;;;;;4.85;2.67;;;;;;;18.13;39.67;102294.81;5083798;28;20462;-66
2023/03/02 01:41:45;;;;;;;4.93;2.50;;;;;;;18.13;39.78;102293.94;5084508;28;20040;-67
2023/03/02 01:44:34;;;;;;;4.35;2.60;;;;;;;18.14;39.42;102293.00;5087547;28;20175;-66
2023/03/02 01:47:00;;;;;;;5.00;2.83;;;;;;;18.11;39.40;102290.53;5103426;28;20031;-67
2023/03/02 01:49:26;;;;;;;4.80;2.50;;;;;;;18.10;39.38;102288.84;5099862;28;20089;-67
2023/03/02 01:51:51;;;;;;;4.93;2.78;;;;;;;18.11;39.37;102287.91;5083792;28;20040;-66
2023/03/02 01:54:22;;;;;;;4.80;2.70;;;;;;;18.11;39.72;102299.28;5095616;28;20031;-67
2023/03/02 01:56:49;;;;;;;6.20;2.78;;;;;;;18.06;39.50;102288.16;5103866;28;20031;-66
2023/03/02 01:59:19;;;;;;;4.90;2.80;;;;;;;18.10;39.47;102292.34;5101127;28;20547;-65
2023/03/02 02:01:50;;;;;;;4.63;2.70;;;;;;;18.03;39.58;102279.59;5083695;28;21082;-66
2023/03/02 02:04:16;;;;;;;5.95;2.72;;;;;;;18.09;39.52;102289.78;5099066;28;20068;-67
2023/03/02 02:06:49;;;;;;;4.30;2.40;;;;;;;18.04;39.71;102279.50;5092390;28;20074;-66
2023/03/02 02:09:18;;;;;;;6.68;2.55;;;;;;;18.05;39.68;102278.53;5085962;28;20450;-68
2023/03/02 02:11:44;;;;;;;6.10;2.47;;;;;;;18.06;39.45;102280.25;5083211;28;20047;-68
2023/03/02 02:14:09;;;;;;;5.40;2.72;;;;;;;18.06;39.75;102289.97;5098757;28;20040;-65
2023/03/02 02:16:35;;;;;;;5.13;2.75;;;;;;;18.05;39.78;102283.81;5093270;28;20088;-67
2023/03/02 02:19:02;;;;;;;4.40;2.50;;;;;;;18.03;39.72;102276.97;5084946;28;20476;-66
2023/03/02 02:21:29;;;;;;;5.18;2.65;;;;;;;18.01;39.77;102274.41;5083216;28;20202;-67
2023/03/02 02:24:10;;;;;;;5.13;2.97;;;;;;;18.00;39.57;102269.22;5090883;28;20028;-67
2023/03/02 02:26:43;;;;;;;6.13;2.83;;;;;;;17.99;39.68;102267.50;5103284;28;20550;-66
2023/03/02 02:29:13;;;;;;;4.60;2.40;;;;;;;17.96;39.66;102265.91;5085174;28;20043;-66
2023/03/02 02:32:11;;;;;;;4.43;2.63;;;;;;;17.98;39.56;102271.94;5092784;28;20055;-66
2023/03/02 02:34:46;;;;;;;5.10;2.80;;;;;;;17.93;39.46;102266.94;5076989;28;20043;-66
2023/03/02 02:37:32;;;;;;;4.45;2.60;;;;;;;17.97;39.52;102267.59;5102370;28;20038;-68
2023/03/02 02:40:00;;;;;;;5.75;2.70;;;;;;;17.94;39.52;102260.72;5098056;28;20035;-67
2023/03/02 02:42:33;;;;;;;5.97;2.40;;;;;;;17.92;39.58;102264.38;5092023;28;20036;-67
2023/03/02 02:45:03;;;;;;;4.75;2.50;;;;;;;17.91;39.69;102260.03;5082815;28;20040;-67
2023/03/02 02:47:28;;;;;;;5.53;2.60;;;;;;;17.90;39.42;102248.66;5082974;28;20472;-67
2023/03/02 02:49:56;;;;;;;5.25;2.78;;;;;;;17.91;39.76;102258.28;5082414;28;20038;-67
2023/03/02 02:52:24;;;;;;;4.95;2.85;;;;;;;17.89;39.65;102252.22;5092379;28;20435;-65
2023/03/02 02:54:52;;;;;;;7.80;2.97;;;;;;;17.89;39.36;102257.50;5103020;28;20042;-67
2023/03/02 02:57:19;;;;;;;4.55;2.65;;;;;;;17.85;39.44;102245.41;5098826;28;20543;-66
2023/03/02 02:59:51;;;;;;;4.32;2.63;;;;;;;17.87;39.67;102256.69;5092311;28;20032;-66
2023/03/02 03:02:23;;;;;;;4.85;2.70;;;;;;;17.86;39.51;102254.16;5087864;28;20028;-66
2023/03/02 03:04:48;;;;;;;5.10;2.70;;;;;;;17.87;39.56;102256.69;5097913;28;20435;-66
2023/03/02 03:07:22;;;;;;;5.00;2.92;;;;;;;17.84;39.47;102256.03;5094371;28;20031;-67
2023/03/02 03:09:56;;;;;;;4.40;2.55;;;;;;;17.83;39.97;102259.59;5097975;28;20061;-67
2023/03/02 03:12:25;;;;;;;5.63;2.87;;;;;;;17.84;39.74;102261.31;5085095;28;20116;-67
2023/03/02 03:14:51;;;;;;;5.45;2.75;;;;;;;17.84;39.73;102259.50;5086578;28;20059;-67
2023/03/02 03:17:17;;;;;;;5.78;3.40;;;;;;;17.81;39.73;102249.16;5081796;28;20116;-66
2023/03/02 03:19:45;;;;;;;5.75;3.03;;;;;;;17.82;39.68;102250.84;5083842;28;20063;-66
2023/03/02 03:22:11;;;;;;;5.47;3.40;;;;;;;17.82;39.55;102252.66;5102187;28;20037;-66
2023/03/02 03:24:38;;;;;;;5.50;3.38;;;;;;;17.83;39.60;102254.31;5101445;28;20601;-66
2023/03/02 03:27:05;;;;;;;5.20;3.00;;;;;;;17.81;39.63;102251.78;5101986;28;20035;-66
2023/03/02 03:29:32;;;;;;;5.50;3.35;;;;;;;17.78;39.55;102251.94;5085391;28;20032;-66
2023/03/02 03:32:00;;;;;;;5.07;3.22;;;;;;;17.78;39.42;102244.03;5081962;28;20031;-67
2023/03/02 03:34:27;;;;;;;5.93;3.63;;;;;;;17.78;39.86;102244.03;5085750;28;20062;-67
2023/03/02 03:36:53;;;;;;;5.63;3.53;;;;;;;17.76;39.68;102240.66;5081778;28;20035;-67
2023/03/02 03:39:19;;;;;;;6.30;3.95;;;;;;;17.78;39.76;102241.41;5081417;28;20028;-66
2023/03/02 03:41:44;;;;;;;7.05;3.80;;;;;;;17.78;39.85;102244.03;5081374;28;20027;-68
2023/03/02 03:44:10;;;;;;;6.47;3.78;;;;;;;17.74;40.06;102239.91;5093725;28;20056;-67
2023/03/02 03:46:35;;;;;;;6.35;3.90;;;;;;;17.76;39.99;102246.78;5100154;28;20139;-69
2023/03/02 03:49:01;;;;;;;6.78;3.90;;;;;;;17.73;39.86;102244.31;5092063;28;20036;-66
2023/03/02 03:51:26;;;;;;;6.72;4.10;;;;;;;17.72;39.88;102241.75;5101451;28;20276;-66
2023/03/02 03:54:01;;;;;;;6.65;3.67;;;;;;;17.73;39.79;102248.75;5101870;28;20038;-68
2023/03/02 03:56:32;;;;;;;6.03;4.15;;;;;;;17.72;39.72;102252.31;5101213;28;20031;-66
2023/03/02 03:59:05;;;;;;;6.80;4.15;;;;;;;17.71;40.03;102253.25;5085051;28;20028;-66
2023/03/02 04:01:46;;;;;;;6.90;4.17;;;;;;;17.72;39.92;102254.94;5097240;28;20551;-66
2023/03/02 04:04:18;;;;;;;7.40;4.57;;;;;;;17.68;40.07;102253.44;5096952;28;21205;-67
2023/03/02 04:06:44;;;;;;;6.88;4.70;;;;;;;17.69;39.81;102255.97;5083361;28;20446;-68
2023/03/02 04:09:11;;;;;;;6.47;4.43;;;;;;;17.70;39.89;102260.28;5085941;28;20499;-68
2023/03/02 04:11:39;;;;;;;8.57;5.18;;;;;;;17.68;40.16;102256.06;5101472;28;20024;-66
2023/03/02 04:14:05;;;;;;;7.57;4.78;;;;;;;17.67;40.16;102251.72;5086064;28;20031;-68
2023/03/02 04:16:32;;;;;;;6.80;4.82;;;;;;;17.65;40.04;102251.81;5081342;28;20391;-66
2023/03/02 04:18:58;;;;;;;7.55;5.20;;;;;;;17.64;39.78;102244.84;5080488;28;20105;-66
2023/03/02 04:21:23;;;;;;;7.07;5.35;;;;;;;17.66;40.08;102255.31;5096792;28;20418;-67
2023/03/02 04:23:49;;;;;;;7.32;4.88;;;;;;;17.67;40.17;102257.00;5089766;28;20096;-67
2023/03/02 04:26:14;;;;;;;7.72;5.43;;;;;;;17.63;39.80;102242.31;5094917;28;20074;-68
2023/03/02 04:28:40;;;;;;;7.85;5.22;;;;;;;17.65;39.86;102243.06;5096451;28;20115;-67
2023/03/02 04:31:05;;;;;;;7.82;5.40;;;;;;;17.63;39.77;102242.31;5087933;28;20032;-66
2023/03/02 04:33:30;;;;;;;9.10;5.40;;;;;;;17.66;39.90;102250.03;5088347;28;20213;-67
2023/03/02 04:35:56;;;;;;;10.40;5.88;;;;;;;17.67;40.21;102249.94;5093034;28;20038;-66
2023/03/02 04:38:21;;;;;;;9.52;5.53;;;;;;;17.66;39.90;102248.25;5105097;27;20092;-66
2023/03/02 04:40:47;;;;;;;7.60;5.18;;;;;;;17.66;40.31;102242.97;5105509;28;20059;-68
2023/03/02 04:43:12;;;;;;;7.95;5.20;;;;;;;17.65;39.97;102243.91;5087438;28;20548;-68
2023/03/02 04:45:38;;;;;;;9.45;5.55;;;;;;;17.67;40.15;102251.72;5094433;28;20883;-67
2023/03/02 04:48:04;;;;;;;7.00;5.10;;;;;;;17.67;40.31;102244.66;5090891;28;20036;-67
2023/03/02 04:50:30;;;;;;;7.88;5.28;;;;;;;17.67;40.32;102249.09;5099043;28;20041;-66
2023/03/02 04:52:55;;;;;;;8.00;5.47;;;;;;;17.66;40.53;102250.03;5105071;28;20031;-67
2023/03/02 04:55:23;;;;;;;7.53;5.45;;;;;;;17.67;40.57;102251.72;5105030;28;20113;-66
2023/03/02 04:57:49;;;;;;;7.55;5.40;;;;;;;17.67;40.51;102249.94;5092733;28;20042;-66
2023/03/02 05:00:15;;;;;;;7.57;5.32;;;;;;;17.66;40.29;102248.25;5100608;28;20031;-65
2023/03/02 05:02:41;;;;;;;7.82;5.47;;;;;;;17.67;40.43;102249.09;5104909;28;20097;-67
2023/03/02 05:05:07;;;;;;;8.82;5.45;;;;;;;17.65;40.26;102246.53;5097688;28;20028;-66
2023/03/02 05:07:32;;;;;;;8.32;5.50;;;;;;;17.65;40.41;102250.97;5084227;28;20028;-67
2023/03/02 05:09:57;;;;;;;9.15;5.68;;;;;;;17.68;40.43;102256.06;5086190;28;20039;-67
2023/03/02 05:12:23;;;;;;;8.55;5.28;;;;;;;17.67;40.32;102257.84;5096511;28;20563;-69
2023/03/02 05:14:48;;;;;;;7.15;4.80;;;;;;;17.69;40.69;102255.13;5084871;28;20038;-65
2023/03/02 05:17:13;;;;;;;7.07;5.60;;;;;;;17.66;40.48;102252.69;5099882;28;20024;-66
2023/03/02 05:19:39;;;;;;;8.07;5.32;;;;;;;17.67;40.29;102251.72;5092455;28;20434;-66
2023/03/02 05:22:04;;;;;;;8.07;4.65;;;;;;;17.68;40.63;102258.72;5085468;28;20038;-68
2023/03/02 05:24:29;;;;;;;8.00;4.97;;;;;;;17.67;40.67;102251.72;5087086;28;20060;-67
2023/03/02 05:26:54;;;;;;;7.85;5.30;;;;;;;17.68;40.37;102254.28;5100963;28;20032;-67
2023/03/02 05:29:20;;;;;;;7.75;5.22;;;;;;;17.70;40.43;102251.56;5083928;28;20040;-68
2023/03/02 05:31:45;;;;;;;7.53;4.93;;;;;;;17.70;40.88;102252.38;5084069;28;20031;-65
2023/03/02 05:34:15;;;;;;;7.65;5.13;;;;;;;17.64;41.04;102244.84;5101936;28;20087;-68
2023/03/02 05:36:40;;;;;;;7.22;4.72;;;;;;;17.68;41.41;102253.44;5088756;28;20103;-68
2023/03/02 05:39:06;;;;;;;6.32;4.03;;;;;;;17.69;41.39;102258.63;5103928;28;20078;-67
2023/03/02 05:41:32;;;;;;;7.07;3.28;;;;;;;17.68;40.43;102251.63;5103996;28;20038;-68
2023/03/02 05:43:57;;;;;;;5.55;3.00;;;;;;;17.72;39.77;102254.94;5091648;28;20036;-67
2023/03/02 05:46:23;;;;;;;6.57;2.75;;;;;;;17.77;39.84;102259.03;5084597;28;20823;-67
2023/03/02 05:48:48;;;;;;;5.60;3.22;;;;;;;17.79;39.95;102244.91;5090596;28;20042;-67
2023/03/02 05:51:14;;;;;;;5.25;2.97;;;;;;;17.84;39.65;102246.31;5082140;28;20039;-66
2023/03/02 05:53:39;;;;;;;5.15;3.00;;;;;;;17.91;39.55;102255.63;5095089;28;20062;-66
2023/03/02 05:56:06;;;;;;;4.68;2.95;;;;;;;17.95;39.54;102254.50;5099731;28;20031;-68
2023/03/02 05:58:31;;;;;;;5.32;3.03;;;;;;;18.00;39.49;102253.38;5103715;28;20172;-67
2023/03/02 06:00:56;;;;;;;5.63;3.33;;;;;;;18.04;39.44;102254.88;5103574;28;20122;-67
2023/03/02 06:03:22;;;;;;;4.97;2.80;;;;;;;18.05;39.50;102251.31;5104151;28;20076;-67
2023/03/02 06:05:51;;;;;;;5.38;3.10;;;;;;;18.09;39.21;102248.41;5103653;28;20118;-68
2023/03/02 06:08:17;;;;;;;5.78;3.03;;;;;;;18.14;39.27;102250.78;5096142;28;20063;-66
2023/03/02 06:10:43;;;;;;;6.10;2.72;;;;;;;18.16;39.27;102251.53;5103317;28;20080;-67
2023/03/02 06:13:08;;;;;;;6.05;3.08;;;;;;;18.09;39.47;102234.38;5097365;27;20032;-67
2023/03/02 06:15:33;;;;;;;5.25;3.17;;;;;;;18.20;39.24;102245.16;5098510;28;20074;-67
2023/03/02 06:17:59;;;;;;;4.75;3.10;;;;;;;18.23;39.53;102244.09;5102734;28;20132;-66
2023/03/02 06:20:24;;;;;;;5.32;3.13;;;;;;;18.21;39.28;102248.63;5103176;28;20047;-67
2023/03/02 06:22:50;;;;;;;5.00;3.08;;;;;;;18.22;39.21;102252.97;5097710;28;20052;-68
2023/03/02 06:25:21;;;;;;;6.03;3.22;;;;;;;18.27;39.44;102250.91;5098743;28;20496;-66
2023/03/02 06:27:52;;;;;;;6.00;3.45;;;;;;;18.25;39.26;102252.81;5102040;28;20542;-66
2023/03/02 06:30:20;;;;;;;5.35;3.17;;;;;;;18.29;39.35;102259.56;5091328;28;20039;-67
2023/03/02 06:32:46;;;;;;;7.05;4.20;;;;;;;18.28;38.95;102263.19;5082933;28;20032;-67
2023/03/02 06:35:11;;;;;;;6.03;4.28;;;;;;;18.32;39.04;102262.03;5083085;28;20067;-67
2023/03/02 06:37:37;;;;;;;6.68;4.57;;;;;;;18.33;39.34;102262.91;5085009;28;20036;-65
2023/03/02 06:40:08;;;;;;;7.22;4.70;;;;;;;18.31;39.47;102268.28;5082679;28;20039;-66
2023/03/02 06:42:34;;;;;;;6.97;4.53;;;;;;;18.33;39.66;102276.09;5098483;28;20036;-64
2023/03/02 06:44:59;;;;;;;7.97;5.18;;;;;;;18.33;39.83;102273.47;5085224;28;20104;-66
2023/03/02 06:47:25;;;;;;;7.47;4.70;;;;;;;18.32;39.70;102277.88;5088469;28;20051;-68
2023/03/02 06:49:50;;;;;;;6.68;4.30;;;;;;;18.29;40.05;102272.78;5090667;28;20821;-67
2023/03/02 06:52:15;;;;;;;7.40;4.13;;;;;;;18.30;40.12;102274.47;5102401;28;20024;-66
2023/03/02 06:54:41;;;;;;;7.65;4.50;;;;;;;18.30;40.17;102277.13;5102164;28;20118;-66
2023/03/02 06:57:07;;;;;;;7.93;4.57;;;;;;;18.31;40.02;102270.91;5091367;28;20533;-64
2023/03/02 06:59:33;;;;;;;7.38;4.72;;;;;;;18.34;40.01;102278.66;5079579;28;20391;-66
2023/03/02 07:01:58;;;;;;;9.60;5.63;;;;;;;18.35;40.47;102275.03;5097379;28;20058;-66
2023/03/02 07:04:23;;;;;;;10.02;3.78;;;;;;;18.37;40.40;102278.44;5101263;28;20419;-66
2023/03/02 07:06:49;;;;;;;8.30;4.78;;;;;;;18.39;40.42;102281.84;5102203;28;20027;-64
2023/03/02 07:09:14;;;;;;;6.93;4.45;;;;;;;18.44;40.24;102281.59;5101987;28;20396;-69
2023/03/02 07:11:39;;;;;;;7.95;4.40;;;;;;;18.44;40.60;102278.94;5096849;28;20076;-67
2023/03/02 07:14:05;;;;;;;18.35;5.18;;;;;;;18.46;40.71;102282.31;5082384;28;20032;-66
2023/03/02 07:16:32;;;;;;;8.02;5.28;;;;;;;18.47;40.77;102289.31;5082482;28;20123;-67
2023/03/02 07:18:57;;;;;;;7.53;4.55;;;;;;;18.46;41.04;102284.97;5081680;28;20048;-69
2023/03/02 07:21:23;;;;;;;7.88;5.18;;;;;;;18.48;41.17;102285.72;5098607;28;20112;-67
2023/03/02 07:23:48;;;;;;;10.73;4.68;;;;;;;18.52;40.87;102300.44;5090603;28;20512;-66
2023/03/02 07:26:13;;;;;;;8.95;4.63;;;;;;;18.49;41.24;102288.28;5089374;28;20551;-66
2023/03/02 07:28:40;;;;;;;8.43;4.65;;;;;;;18.53;42.42;102291.56;5084814;28;20031;-66
2023/03/02 07:31:07;;;;;;;8.73;5.10;;;;;;;18.55;42.89;102294.97;5102047;27;20032;-67
2023/03/02 07:33:33;;;;;;;9.38;5.38;;;;;;;18.59;42.30;102295.63;5094250;28;20093;-67
2023/03/02 07:35:59;;;;;;;10.15;5.25;;;;;;;18.60;42.70;102289.44;5082816;28;20034;-65
2023/03/02 07:38:25;;;;;;;9.50;5.63;;;;;;;18.61;42.64;102293.75;5082739;28;20036;-64
2023/03/02 07:40:50;;;;;;;9.68;5.20;;;;;;;18.64;42.73;102289.16;5081963;28;20036;-66
2023/03/02 07:43:16;;;;;;;9.80;5.72;;;;;;;18.66;43.21;102294.34;5081456;28;20131;-66
2023/03/02 07:45:41;;;;;;;9.48;5.60;;;;;;;18.64;43.27;102283.00;5081724;28;20034;-66
2023/03/02 07:48:06;;;;;;;10.07;5.57;;;;;;;18.66;43.48;102279.34;5096202;28;20106;-67
2023/03/02 07:50:32;;;;;;;13.93;5.90;;;;;;;18.66;43.41;102281.13;5093460;28;20036;-65
2023/03/02 07:52:58;;;;;;;10.55;5.40;;;;;;;18.71;43.66;102291.38;5081087;28;20050;-65
2023/03/02 07:55:23;;;;;;;9.65;5.30;;;;;;;18.71;43.79;102300.19;5088203;28;20088;-65
2023/03/02 07:57:48;;;;;;;14.25;5.05;;;;;;;18.74;43.43;102299.13;5101413;28;20573;-66
2023/03/02 08:00:14;;;;;;;9.88;5.28;;;;;;;18.73;43.53;102290.38;5101295;27;20035;-67
2023/03/02 08:02:41;;;;;;;9.15;4.95;;;;;;;18.77;43.22;102293.66;5082287;28;20036;-67
2023/03/02 08:05:07;;;;;;;10.57;5.88;;;;;;;18.78;42.63;102283.00;5087701;28;20042;-65
2023/03/02 08:07:32;;;;;;;11.00;5.30;;;;;;;18.80;42.92;102286.41;5092051;28;20032;-68
2023/03/02 08:09:59;;;;;;;8.40;5.03;;;;;;;18.79;42.61;102284.72;5100197;28;20407;-65
2023/03/02 08:12:25;;;;;;;9.77;5.45;;;;;;;18.81;41.98;102287.25;5081168;28;20086;-65
2023/03/02 08:14:50;;;;;;;8.57;5.18;;;;;;;18.78;41.93;102280.38;5090520;28;20381;-66
2023/03/02 08:17:16;;;;;;;10.63;6.47;;;;;;;18.79;41.62;102282.06;5084456;28;20430;-65
2023/03/02 08:19:42;;;;;;;8.90;4.85;;;;;;;18.81;41.43;102288.09;5083620;28;20143;-67
2023/03/02 08:22:07;;;;;;;11.88;5.95;;;;;;;18.83;41.14;102291.53;5088683;28;20119;-66
2023/03/02 08:24:32;;;;;;;10.32;5.63;;;;;;;18.78;40.82;102285.66;5087169;28;20400;-65
2023/03/02 08:27:02;;;;;;;9.82;5.82;;;;;;;18.82;40.51;102283.69;5087228;28;20365;-66
2023/03/02 08:29:27;;;;;;;8.93;5.57;;;;;;;18.82;39.96;102286.31;5085917;28;20031;-65
2023/03/02 08:31:53;;;;;;;9.23;5.30;;;;;;;18.86;40.04;102293.13;5080468;28;20578;-67
2023/03/02 08:34:18;;;;;;;10.27;5.55;;;;;;;18.92;39.65;102291.91;5097046;28;20043;-67
2023/03/02 08:36:43;;;;;;;8.80;5.13;;;;;;;18.85;39.74;102289.66;5094883;28;20031;-66
2023/03/02 08:39:09;;;;;;;19.58;6.28;;;;;;;18.84;39.84;102287.94;5088569;28;20039;-68
2023/03/02 08:41:34;;;;;;;9.63;5.15;;;;;;;18.82;39.54;102288.97;5091021;28;21078;-69
2023/03/02 08:44:00;;;;;;;10.75;5.60;;;;;;;18.81;39.42;102290.75;5093449;28;20415;-69
2023/03/02 08:46:25;;;;;;;8.60;5.10;;;;;;;18.82;39.43;102288.97;5092315;28;20476;-69
2023/03/02 08:48:50;;;;;;;11.27;5.28;;;;;;;18.83;39.32;102288.88;5091674;28;20040;-68
2023/03/02 08:51:19;;;;;;;9.40;5.15;;;;;;;18.85;39.52;102294.94;5094763;28;20032;-69
2023/03/02 08:53:46;;;;;;;12.95;5.00;;;;;;;18.87;39.40;102292.19;5086219;28;20229;-69
2023/03/02 08:56:19;;;;;;;13.60;5.63;;;;;;;18.87;39.33;102286.91;5087452;28;20036;-68
2023/03/02 08:58:47;;;;;;;12.90;5.55;;;;;;;18.94;39.52;102290.88;5082871;28;20460;-73
2023/03/02 09:01:17;;;;;;;18.35;5.03;;;;;;;18.92;39.57;102282.19;5090163;28;20503;-68
2023/03/02 09:03:43;;;;;;;14.60;5.50;;;;;;;18.95;39.38;102279.38;5085514;28;20023;-69
2023/03/02 09:06:08;;;;;;;13.75;5.38;;;;;;;18.96;39.34;102270.50;5090994;28;20039;-68
2023/03/02 09:08:33;;;;;;;13.90;4.72;;;;;;;18.95;39.38;102270.59;5093587;28;20035;-68
2023/03/02 09:10:59;;;;;;;11.50;5.55;;;;;;;18.98;39.30;102273.88;5094673;28;20036;-69
2023/03/02 09:13:24;;;;;;;16.50;7.32;;;;;;;18.98;39.60;102267.78;5089440;28;20027;-70
2023/03/02 09:15:49;;;;;;;17.85;5.30;;;;;;;19.02;39.64;102267.44;5095002;28;20196;-66
2023/03/02 09:18:15;;;;;;;9.13;4.80;;;;;;;18.97;39.09;102258.13;5092602;28;20043;-66
2023/03/02 09:20:40;;;;;;;16.38;5.32;;;;;;;19.02;38.83;102267.44;5098783;28;20047;-69
2023/03/02 09:23:05;;;;;;;12.20;4.93;;;;;;;19.04;38.83;102272.63;5093140;28;20053;-71
2023/03/02 09:25:31;;;;;;;11.65;5.10;;;;;;;19.06;39.15;102276.06;5099002;28;20031;-71
2023/03/02 09:27:56;;;;;;;10.60;4.65;;;;;;;19.05;39.54;102269.06;5090257;28;20500;-68
2023/03/02 09:30:21;;;;;;;9.45;4.75;;;;;;;19.06;39.25;102269.91;5100458;28;20115;-70
2023/03/02 09:32:47;;;;;;;16.90;5.30;;;;;;;19.05;39.62;102268.22;5099353;28;20031;-68
2023/03/02 09:35:13;;;;;;;19.45;4.63;;;;;;;19.09;39.25;102269.72;5092509;28;20044;-70
2023/03/02 09:37:38;;;;;;;12.20;4.72;;;;;;;19.08;39.13;102266.22;5097439;28;20035;-70
2023/03/02 09:40:14;;;;;;;13.55;4.45;;;;;;;19.10;39.14;102266.97;5095758;28;20429;-73
2023/03/02 09:42:53;;;;;;;13.65;4.50;;;;;;;19.13;39.29;102268.59;5103465;28;20502;-70
2023/03/02 09:45:34;;;;;;;14.90;5.20;;;;;;;19.09;39.16;102262.66;5097633;28;20107;-73
2023/03/02 09:48:14;;;;;;;13.57;5.05;;;;;;;19.11;39.42;102262.56;5099457;28;20065;-68
2023/03/02 09:50:50;;;;;;;15.32;4.93;;;;;;;19.12;39.48;102261.59;5098889;28;20024;-76
2023/03/02 09:53:22;;;;;;;13.68;4.80;;;;;;;19.14;39.53;102260.56;5094315;28;20028;-70
2023/03/02 09:55:55;;;;;;;14.15;4.80;;;;;;;19.13;39.49;102256.22;5094623;28;20043;-69
2023/03/02 09:58:24;;;;;;;16.50;4.53;;;;;;;19.15;39.68;102259.63;5088422;28;20027;-69
2023/03/02 10:00:50;;;;;;;12.60;4.28;;;;;;;19.17;39.83;102257.72;5098682;28;20028;-69
2023/03/02 10:03:30;;;;;;;14.43;4.43;;;;;;;19.18;40.03;102255.91;5095181;28;20036;-71
2023/03/02 10:05:56;;;;;;;12.93;4.22;;;;;;;19.19;40.04;102253.19;5097876;28;20108;-70
2023/03/02 10:08:24;;;;;;;14.60;4.78;;;;;;;19.18;39.73;102242.72;5091856;28;20080;-72
2023/03/02 10:11:04;;;;;;;15.48;4.53;;;;;;;19.23;39.91;102253.81;5097151;28;21065;-71
2023/03/02 10:13:52;;;;;;;13.57;3.88;;;;;;;19.27;39.54;102262.44;5090267;28;20373;-69
2023/03/02 10:16:47;;;;;;;13.43;4.60;;;;;;;19.24;39.57;102252.91;5087760;28;20028;-68
2023/03/02 10:19:27;;;;;;;11.23;4.18;;;;;;;19.24;39.48;102244.97;5090331;28;20480;-68
2023/03/02 10:22:16;;;;;;;16.05;4.63;;;;;;;19.27;39.51;102250.06;5096052;28;20028;-69
2023/03/02 10:24:53;;;;;;;13.63;3.67;;;;;;;19.26;39.34;102256.28;5095388;28;20096;-69
2023/03/02 10:27:40;;;;;;;11.45;4.10;;;;;;;19.25;38.96;102253.72;5093538;28;20122;-71
2023/03/02 10:30:27;;;;;;;11.68;3.80;;;;;;;19.29;38.96;102247.31;5099303;28;20036;-71
2023/03/02 10:32:57;;;;;;;16.40;4.65;;;;;;;19.27;38.64;102246.56;5094133;28;20035;-71
2023/03/02 10:35:25;;;;;;;12.20;5.20;;;;;;;19.28;38.63;102250.91;5095814;28;20028;-72
2023/03/02 10:37:57;;;;;;;13.00;4.50;;;;;;;19.26;38.81;102251.00;5097960;28;20092;-71
2023/03/02 10:40:41;;;;;;;11.60;3.85;;;;;;;19.21;38.30;102243.34;5083027;28;20061;-71
2023/03/02 10:43:13;;;;;;;;;;;;;;;19.30;38.45;102252.50;5092772;28;20031;-70
2023/03/02 10:45:38;;;;;;;8.73;3.55;;;;;;;19.32;38.15;102247.13;5086217;28;19916;-71
2023/03/02 10:48:09;;;;;;;11.05;3.72;;;;;;;19.28;38.12;102241.19;5090903;28;20108;-69
2023/03/02 10:50:35;;;;;;;10.90;4.32;;;;;;;19.31;38.22;102241.00;5088981;28;20253;-72
2023/03/02 10:53:01;;;;;;;11.63;4.10;;;;;;;19.30;38.48;102234.00;5098064;28;20023;-69
2023/03/02 10:55:26;;;;;;;10.45;4.13;;;;;;;19.31;38.50;102234.84;5090212;28;20047;-69
2023/03/02 10:57:58;;;;;;;12.60;4.10;;;;;;;19.32;39.24;102237.38;5085844;28;20028;-69
2023/03/02 11:00:26;;;;;;;12.23;4.28;;;;;;;19.32;39.90;102241.84;5094299;28;20027;-69
2023/03/02 11:02:56;;;;;;;7.05;3.60;;;;;;;19.31;39.85;102238.34;5092813;28;20031;-71
2023/03/02 11:05:37;;;;;;;9.00;3.78;;;;;;;19.33;39.95;102235.63;5092317;28;20488;-70
2023/03/02 11:08:16;;;;;;;12.00;3.85;;;;;;;19.30;40.05;102227.88;5090871;28;20043;-69
2023/03/02 11:10:59;;;;;;;13.25;3.85;;;;;;;19.30;40.17;102235.81;5090108;28;20047;-70
2023/03/02 11:13:27;;;;;;;11.17;3.90;;;;;;;19.35;40.26;102231.06;5091764;28;20039;-71
2023/03/02 11:16:15;;;;;;;11.20;3.67;;;;;;;19.35;40.21;102231.06;5090658;28;20035;-68
2023/03/02 11:18:47;;;;;;;9.57;3.17;;;;;;;19.31;40.25;102218.97;5075891;28;20097;-67
2023/03/02 11:21:17;;;;;;;14.18;4.05;;;;;;;19.36;40.58;102227.47;5082234;28;20048;-68
2023/03/02 11:24:06;;;;;;;12.60;4.05;;;;;;;19.37;40.68;102229.16;5082289;28;20123;-69
2023/03/02 11:26:53;;;;;;;10.07;3.72;;;;;;;19.36;40.49;102228.31;5082056;28;20048;-71
2023/03/02 11:29:35;;;;;;;12.70;3.90;;;;;;;19.36;40.84;102225.69;5086910;28;20032;-68